createdAt,value
2019-05-03T00:01:54.055Z,0.00
2019-05-03T00:05:02.407Z,0.00
2019-05-03T00:07:54.008Z,0.00
2019-05-03T00:10:53.949Z,0.00
2019-05-03T00:13:53.930Z,0.00
2019-05-03T00:16:55.398Z,0.00
2019-05-03T00:19:53.866Z,0.00
2019-05-03T00:22:53.818Z,0.00
2019-05-03T00:25:53.798Z,0.00
2019-05-03T00:28:53.768Z,0.00
2019-05-03T00:31:53.725Z,0.00
2019-05-03T00:34:53.704Z,0.00
2019-05-03T00:37:53.667Z,0.00
2019-05-03T00:40:53.641Z,0.00
2019-05-03T00:43:53.617Z,0.00
2019-05-03T00:46:53.562Z,0.00
2019-05-03T00:49:53.540Z,0.00
2019-05-03T00:52:53.496Z,0.00
2019-05-03T00:55:53.475Z,0.00
2019-05-03T00:58:53.432Z,0.00
2019-05-03T01:01:53.414Z,0.00
2019-05-03T01:04:53.380Z,0.00
2019-05-03T01:07:53.337Z,0.00
2019-05-03T01:10:53.315Z,0.00
2019-05-03T01:13:53.271Z,0.00
2019-05-03T01:16:53.263Z,0.00
2019-05-03T01:19:53.207Z,0.00
2019-05-03T01:22:53.185Z,0.00
2019-05-03T01:25:53.152Z,0.00
2019-05-03T01:28:53.116Z,0.00
2019-05-03T01:31:53.091Z,0.00
2019-05-03T01:34:53.045Z,0.00
2019-05-03T01:37:53.024Z,0.00
2019-05-03T01:40:52.980Z,0.00
2019-05-03T01:43:52.960Z,0.00
2019-05-03T01:46:52.934Z,0.00
2019-05-03T01:49:52.887Z,0.00
2019-05-03T01:52:52.862Z,0.00
2019-05-03T01:55:52.837Z,0.00
2019-05-03T01:58:52.803Z,0.00
2019-05-03T02:01:52.755Z,0.00
2019-05-03T02:04:53.403Z,0.00
2019-05-03T02:07:52.699Z,0.00
2019-05-03T02:10:52.655Z,0.00
2019-05-03T02:13:52.635Z,0.00
2019-05-03T02:16:52.593Z,0.00
2019-05-03T02:19:52.947Z,0.00
2019-05-03T02:22:52.529Z,0.00
2019-05-03T02:25:56.813Z,0.00
2019-05-03T02:28:53.461Z,0.00
2019-05-03T02:31:53.437Z,0.00
2019-05-03T02:34:53.472Z,0.00
2019-05-03T02:37:53.159Z,0.00
2019-05-03T02:40:53.263Z,0.00
2019-05-03T02:43:52.301Z,0.00
2019-05-03T02:46:52.281Z,0.00
2019-05-03T02:49:52.240Z,0.00
2019-05-03T02:52:52.217Z,0.00
2019-05-03T02:55:52.172Z,0.00
2019-05-03T02:58:52.155Z,0.00
2019-05-03T03:01:52.120Z,0.00
2019-05-03T03:04:52.076Z,0.00
2019-05-03T03:07:52.057Z,0.00
2019-05-03T03:10:52.009Z,0.00
2019-05-03T03:13:51.989Z,0.00
2019-05-03T03:16:51.970Z,0.00
2019-05-03T03:19:51.914Z,0.00
2019-05-03T03:22:51.894Z,0.00
2019-05-03T03:25:51.849Z,0.00
2019-05-03T03:28:51.830Z,0.00
2019-05-03T03:31:51.830Z,0.00
2019-05-03T03:34:56.850Z,0.00
2019-05-03T03:37:55.643Z,0.00
2019-05-03T03:40:55.336Z,0.00
2019-05-03T03:43:55.538Z,0.00
2019-05-03T03:46:51.619Z,0.00
2019-05-03T03:49:51.606Z,0.00
2019-05-03T03:52:51.559Z,0.00
2019-05-03T03:55:51.538Z,0.00
2019-05-03T03:58:51.504Z,5.62
2019-05-03T04:01:51.476Z,5.62
2019-05-03T04:04:51.446Z,5.62
2019-05-03T04:07:51.396Z,5.62
2019-05-03T04:10:51.377Z,11.25
2019-05-03T04:13:51.332Z,11.25
2019-05-03T04:16:51.311Z,11.25
2019-05-03T04:19:51.272Z,11.25
2019-05-03T04:22:51.246Z,16.88
2019-05-03T04:25:51.221Z,16.88
2019-05-03T04:28:51.184Z,22.50
2019-05-03T04:31:51.136Z,28.12
2019-05-03T04:34:51.126Z,28.12
2019-05-03T04:37:51.087Z,28.12
2019-05-03T04:40:51.055Z,28.12
2019-05-03T04:43:51.019Z,28.12
2019-05-03T04:46:50.980Z,33.75
2019-05-03T04:49:50.954Z,39.38
2019-05-03T04:52:50.912Z,39.38
2019-05-03T04:55:50.894Z,45.00
2019-05-03T04:58:50.851Z,50.62
2019-05-03T05:01:50.821Z,61.88
2019-05-03T05:04:50.784Z,61.88
2019-05-03T05:07:50.743Z,61.88
2019-05-03T05:10:50.718Z,73.12
2019-05-03T05:13:50.678Z,90.00
2019-05-03T05:16:50.666Z,101.25
2019-05-03T05:19:50.612Z,118.12
2019-05-03T05:22:50.593Z,129.38
2019-05-03T05:25:50.559Z,135.00
2019-05-03T05:28:50.518Z,157.50
2019-05-03T05:31:50.494Z,180.00
2019-05-03T05:34:50.455Z,208.12
2019-05-03T05:37:50.429Z,225.00
2019-05-03T05:40:50.402Z,236.25
2019-05-03T05:43:50.354Z,275.62
2019-05-03T05:46:50.333Z,742.50
2019-05-03T05:49:50.288Z,826.88
2019-05-03T05:52:50.292Z,866.25
2019-05-03T05:55:50.224Z,939.38
2019-05-03T05:58:50.207Z,528.75
2019-05-03T06:01:50.171Z,1040.62
2019-05-03T06:04:50.129Z,1068.75
2019-05-03T06:07:50.108Z,1119.38
2019-05-03T06:10:50.066Z,1181.25
2019-05-03T06:13:50.047Z,1108.12
2019-05-03T06:16:50.010Z,1136.25
2019-05-03T06:19:49.983Z,1209.38
2019-05-03T06:22:49.951Z,1366.88
2019-05-03T06:25:49.902Z,1248.75
2019-05-03T06:28:49.878Z,1231.88
2019-05-03T06:31:49.836Z,1361.25
2019-05-03T06:34:49.817Z,590.62
2019-05-03T06:37:49.790Z,978.75
2019-05-03T06:40:50.582Z,331.88
2019-05-03T06:43:49.743Z,354.38
2019-05-03T06:46:49.677Z,990.00
2019-05-03T06:49:49.654Z,1670.62
2019-05-03T06:52:49.616Z,1710.00
2019-05-03T06:55:49.645Z,1721.25
2019-05-03T06:58:49.579Z,1687.50
2019-05-03T07:01:49.529Z,461.25
2019-05-03T07:04:49.491Z,1665.00
2019-05-03T07:07:49.453Z,455.62
2019-05-03T07:10:49.484Z,596.25
2019-05-03T07:13:49.384Z,286.88
2019-05-03T07:18:35.131Z,2092.50
2019-05-03T07:21:35.281Z,2233.12
2019-05-03T07:24:37.586Z,2171.25
2019-05-03T07:27:34.980Z,635.62
2019-05-03T07:30:35.123Z,2137.50
2019-05-03T07:33:34.671Z,556.88
2019-05-03T07:36:33.038Z,517.50
2019-05-03T07:39:34.845Z,2092.50
2019-05-03T07:42:34.698Z,534.38
2019-05-03T07:45:32.948Z,315.00
2019-05-03T07:48:32.893Z,1226.25
2019-05-03T07:51:34.847Z,264.38
2019-05-03T07:54:34.786Z,455.62
2019-05-03T07:57:32.811Z,2244.38
2019-05-03T08:00:34.361Z,601.88
2019-05-03T08:03:34.690Z,331.88
2019-05-03T08:06:34.593Z,286.88
2019-05-03T08:09:34.865Z,326.25
2019-05-03T08:12:34.802Z,416.25
2019-05-03T08:15:34.685Z,2182.50
2019-05-03T08:18:32.575Z,2036.25
2019-05-03T08:21:32.544Z,506.25
2019-05-03T08:24:34.661Z,427.50
2019-05-03T08:27:32.469Z,1136.25
2019-05-03T08:30:32.450Z,410.62
2019-05-03T08:33:32.424Z,444.38
2019-05-03T08:36:32.373Z,444.38
2019-05-03T08:39:32.350Z,472.50
2019-05-03T08:42:32.327Z,2756.25
2019-05-03T08:45:32.269Z,961.88
2019-05-03T08:48:32.268Z,663.75
2019-05-03T08:51:32.204Z,438.75
2019-05-03T08:54:32.195Z,320.62
2019-05-03T08:57:32.138Z,303.75
2019-05-03T09:00:32.116Z,298.12
2019-05-03T09:03:32.090Z,388.12
2019-05-03T09:06:32.050Z,675.00
2019-05-03T09:09:32.009Z,781.88
2019-05-03T09:12:31.993Z,573.75
2019-05-03T09:15:31.944Z,483.75
2019-05-03T09:18:31.932Z,461.25
2019-05-03T09:21:31.888Z,528.75
2019-05-03T09:24:31.850Z,652.50
2019-05-03T09:27:31.848Z,2424.38
2019-05-03T09:30:31.775Z,2671.88
2019-05-03T09:33:31.765Z,635.62
2019-05-03T09:36:31.717Z,365.62
2019-05-03T09:39:31.692Z,230.62
2019-05-03T09:42:31.648Z,191.25
2019-05-03T09:45:31.620Z,213.75
2019-05-03T09:48:31.580Z,275.62
2019-05-03T09:51:31.561Z,371.25
2019-05-03T09:54:31.528Z,523.12
2019-05-03T09:57:31.500Z,2790.00
2019-05-03T10:00:31.462Z,2638.12
2019-05-03T10:03:31.431Z,2767.50
2019-05-03T10:06:31.405Z,2846.25
2019-05-03T10:09:31.353Z,613.12
2019-05-03T10:12:31.335Z,421.88
2019-05-03T10:15:31.300Z,399.38
2019-05-03T10:18:31.266Z,427.50
2019-05-03T10:21:31.264Z,511.88
2019-05-03T10:24:31.188Z,1530.00
2019-05-03T10:27:31.168Z,1743.75
2019-05-03T10:30:31.129Z,1462.50
2019-05-03T10:33:31.107Z,1890.00
2019-05-03T10:36:31.068Z,585.00
2019-05-03T10:39:31.050Z,410.62
2019-05-03T10:42:30.996Z,298.12
2019-05-03T10:45:30.987Z,292.50
2019-05-03T10:48:30.926Z,399.38
2019-05-03T10:51:30.921Z,686.25
2019-05-03T10:54:30.875Z,945.00
2019-05-03T10:57:30.853Z,1063.12
2019-05-03T11:00:52.746Z,855.00
2019-05-03T11:03:31.766Z,1023.75
2019-05-03T11:06:30.746Z,2767.50
2019-05-03T11:09:30.699Z,2784.38
2019-05-03T11:12:30.686Z,3020.62
2019-05-03T11:15:30.637Z,849.38
2019-05-03T11:18:30.614Z,3099.38
2019-05-03T11:21:31.101Z,3088.12
2019-05-03T11:24:30.549Z,1175.62
2019-05-03T11:27:30.532Z,573.75
2019-05-03T11:30:30.479Z,444.38
2019-05-03T11:33:30.453Z,331.88
2019-05-03T11:36:31.853Z,230.62
2019-05-03T11:39:30.389Z,191.25
2019-05-03T11:42:30.374Z,202.50
2019-05-03T11:45:30.310Z,298.12
2019-05-03T11:48:30.309Z,511.88
2019-05-03T11:51:30.257Z,635.62
2019-05-03T11:54:30.224Z,753.75
2019-05-03T11:57:30.202Z,2486.25
2019-05-03T12:00:30.184Z,1996.88
2019-05-03T12:03:30.116Z,1080.00
2019-05-03T12:06:30.096Z,815.62
2019-05-03T12:09:30.048Z,748.12
2019-05-03T12:12:30.032Z,613.12
2019-05-03T12:15:30.035Z,478.12
2019-05-03T12:18:29.980Z,354.38
2019-05-03T12:21:31.198Z,388.12
2019-05-03T12:24:30.701Z,427.50
2019-05-03T12:27:29.863Z,410.62
2019-05-03T12:30:29.836Z,410.62
2019-05-03T12:33:29.812Z,489.38
2019-05-03T12:36:29.754Z,2244.38
2019-05-03T12:39:30.741Z,686.25
2019-05-03T12:42:30.697Z,466.88
2019-05-03T12:45:29.679Z,292.50
2019-05-03T12:48:29.666Z,225.00
2019-05-03T12:51:29.603Z,253.12
2019-05-03T12:54:29.572Z,399.38
2019-05-03T12:57:29.529Z,472.50
2019-05-03T13:00:29.507Z,630.00
2019-05-03T13:03:30.421Z,883.12
2019-05-03T13:06:29.446Z,1108.12
2019-05-03T13:09:29.404Z,1434.38
2019-05-03T13:12:29.374Z,1012.50
2019-05-03T13:15:29.333Z,1243.12
2019-05-03T13:18:29.318Z,500.62
2019-05-03T13:21:29.279Z,303.75
2019-05-03T13:24:29.243Z,303.75
2019-05-03T13:27:29.203Z,427.50
2019-05-03T13:30:29.193Z,1350.00
2019-05-03T13:33:36.195Z,1282.50
2019-05-03T13:36:29.114Z,534.38
2019-05-03T13:39:29.068Z,444.38
2019-05-03T13:42:29.051Z,877.50
2019-05-03T13:45:29.029Z,658.12
2019-05-03T13:48:41.510Z,450.00
2019-05-03T13:51:29.950Z,438.75
2019-05-03T13:54:28.912Z,500.62
2019-05-03T13:57:28.887Z,433.12
2019-05-03T14:00:28.840Z,461.25
2019-05-03T14:03:28.825Z,843.75
2019-05-03T14:06:28.790Z,596.25
2019-05-03T14:09:28.752Z,579.38
2019-05-03T14:12:28.737Z,556.88
2019-05-03T14:15:28.694Z,427.50
2019-05-03T14:18:28.646Z,371.25
2019-05-03T14:21:28.627Z,506.25
2019-05-03T14:24:28.596Z,961.88
2019-05-03T14:27:28.550Z,1310.62
2019-05-03T14:30:28.527Z,1507.50
2019-05-03T14:33:28.503Z,495.00
2019-05-03T14:36:28.461Z,517.50
2019-05-03T14:39:28.436Z,478.12
2019-05-03T14:42:28.387Z,393.75
2019-05-03T14:45:28.370Z,343.12
2019-05-03T14:48:28.334Z,309.38
2019-05-03T14:51:28.286Z,270.00
2019-05-03T14:54:28.272Z,253.12
2019-05-03T14:57:28.302Z,264.38
2019-05-03T15:00:28.198Z,281.25
2019-05-03T15:03:28.186Z,281.25
2019-05-03T15:06:28.141Z,253.12
2019-05-03T15:09:28.092Z,286.88
2019-05-03T15:12:28.077Z,326.25
2019-05-03T15:15:28.905Z,343.12
2019-05-03T15:18:28.004Z,343.12
2019-05-03T15:21:27.967Z,315.00
2019-05-03T15:24:27.940Z,286.88
2019-05-03T15:27:27.905Z,225.00
2019-05-03T15:30:27.858Z,185.62
2019-05-03T15:33:28.991Z,151.88
2019-05-03T15:36:27.815Z,140.62
2019-05-03T15:39:27.787Z,163.12
2019-05-03T15:42:27.736Z,151.88
2019-05-03T15:45:27.712Z,106.88
2019-05-03T15:48:27.681Z,84.38
2019-05-03T15:51:27.634Z,112.50
2019-05-03T15:54:27.605Z,146.25
2019-05-03T15:57:27.591Z,213.75
2019-05-03T16:00:27.549Z,241.88
2019-05-03T16:03:27.509Z,236.25
2019-05-03T16:06:27.473Z,241.88
2019-05-03T16:09:27.454Z,258.75
2019-05-03T16:12:27.402Z,264.38
2019-05-03T16:15:27.382Z,281.25
2019-05-03T16:18:27.361Z,264.38
2019-05-03T16:21:27.308Z,393.75
2019-05-03T16:24:27.282Z,208.12
2019-05-03T16:27:27.261Z,225.00
2019-05-03T16:30:27.228Z,213.75
2019-05-03T16:33:28.293Z,180.00
2019-05-03T16:36:27.154Z,123.75
2019-05-03T16:39:27.114Z,106.88
2019-05-03T16:42:27.074Z,129.38
2019-05-03T16:45:27.057Z,146.25
2019-05-03T16:48:27.008Z,146.25
2019-05-03T16:51:26.988Z,123.75
2019-05-03T16:54:26.945Z,101.25
2019-05-03T16:57:26.923Z,78.75
2019-05-03T17:00:26.891Z,90.00
2019-05-03T17:03:38.137Z,101.25
2019-05-03T17:06:27.810Z,90.00
2019-05-03T17:09:26.812Z,84.38
2019-05-03T17:12:26.758Z,95.62
2019-05-03T17:15:26.722Z,84.38
2019-05-03T17:18:26.693Z,67.50
2019-05-03T17:21:26.698Z,67.50
2019-05-03T17:24:26.611Z,56.25
2019-05-03T17:27:26.599Z,39.38
2019-05-03T17:30:34.087Z,22.50
2019-05-03T17:33:27.532Z,22.50
2019-05-03T17:36:26.493Z,28.12
2019-05-03T17:39:26.461Z,33.75
2019-05-03T17:42:26.435Z,33.75
2019-05-03T17:45:26.420Z,28.12
2019-05-03T17:48:26.349Z,28.12
2019-05-03T17:51:26.331Z,22.50
2019-05-03T17:54:26.307Z,22.50
2019-05-03T17:57:26.268Z,16.88
2019-05-03T18:00:26.218Z,22.50
2019-05-03T18:03:26.199Z,33.75
2019-05-03T18:06:26.152Z,45.00
2019-05-03T18:09:26.154Z,39.38
2019-05-03T18:12:26.083Z,33.75
2019-05-03T18:15:26.063Z,39.38
2019-05-03T18:18:26.050Z,39.38
2019-05-03T18:21:25.986Z,33.75
2019-05-03T18:24:25.987Z,22.50
2019-05-03T18:27:25.930Z,16.88
2019-05-03T18:30:25.901Z,11.25
2019-05-03T18:33:25.857Z,11.25
2019-05-03T18:36:25.837Z,5.62
2019-05-03T18:39:25.812Z,5.62
2019-05-03T18:42:25.764Z,0.00
2019-05-03T18:45:25.742Z,0.00
2019-05-03T18:48:26.523Z,0.00
2019-05-03T18:51:25.675Z,0.00
2019-05-03T18:54:25.655Z,0.00
2019-05-03T18:57:25.731Z,0.00
2019-05-03T19:00:25.568Z,0.00
2019-05-03T19:03:25.541Z,0.00
2019-05-03T19:06:25.512Z,0.00
2019-05-03T19:09:25.465Z,0.00
2019-05-03T19:12:26.445Z,0.00
2019-05-03T19:15:25.405Z,0.00
2019-05-03T19:18:25.379Z,0.00
2019-05-03T19:21:25.347Z,0.00
2019-05-03T19:24:25.302Z,0.00
2019-05-03T19:27:25.318Z,0.00
2019-05-03T19:30:25.232Z,0.00
2019-05-03T19:33:32.257Z,0.00
2019-05-03T19:36:25.194Z,0.00
2019-05-03T19:39:25.335Z,0.00
2019-05-03T19:42:27.368Z,0.00
2019-05-03T19:45:25.071Z,0.00
2019-05-03T19:48:25.689Z,0.00
2019-05-03T19:51:25.011Z,0.00
2019-05-03T19:54:24.990Z,0.00
2019-05-03T19:57:24.948Z,0.00
2019-05-03T20:00:25.546Z,0.00
2019-05-03T20:03:24.878Z,0.00
2019-05-03T20:06:25.269Z,0.00
2019-05-03T20:09:24.829Z,0.00
2019-05-03T20:12:24.772Z,0.00
2019-05-03T20:15:24.748Z,0.00
2019-05-03T20:18:24.779Z,0.00
2019-05-03T20:21:25.239Z,0.00
2019-05-03T20:24:25.350Z,0.00
2019-05-03T20:27:24.607Z,0.00
2019-05-03T20:30:25.473Z,0.00
2019-05-03T20:33:24.726Z,0.00
2019-05-03T20:36:24.525Z,0.00
2019-05-03T20:39:25.403Z,0.00
2019-05-03T20:42:24.708Z,0.00
2019-05-03T20:45:24.880Z,0.00
2019-05-03T20:48:25.041Z,0.00
2019-05-03T20:51:25.187Z,0.00
2019-05-03T20:54:24.317Z,0.00
2019-05-03T20:57:24.758Z,0.00
2019-05-03T21:00:25.613Z,0.00
2019-05-03T21:03:24.824Z,0.00
2019-05-03T21:06:35.202Z,0.00
2019-05-03T21:09:25.159Z,0.00
2019-05-03T21:12:25.243Z,0.00
2019-05-03T21:15:24.709Z,0.00
2019-05-03T21:18:24.399Z,0.00
2019-05-03T21:21:24.893Z,0.00
2019-05-03T21:24:26.033Z,0.00
2019-05-03T21:27:24.713Z,0.00
2019-05-03T21:30:24.676Z,0.00
2019-05-03T21:33:25.771Z,0.00
2019-05-03T21:36:25.488Z,0.00
2019-05-03T21:39:24.728Z,0.00
2019-05-03T21:42:23.789Z,0.00
2019-05-03T21:45:24.711Z,0.00
2019-05-03T21:48:24.978Z,0.00
2019-05-03T21:51:24.485Z,0.00
2019-05-03T21:54:24.608Z,0.00
2019-05-03T21:57:25.298Z,0.00
2019-05-03T22:00:23.597Z,0.00
2019-05-03T22:03:25.234Z,0.00
2019-05-03T22:06:24.682Z,0.00
2019-05-03T22:09:23.503Z,0.00
2019-05-03T22:12:24.850Z,0.00
2019-05-03T22:15:23.422Z,0.00
2019-05-03T22:18:24.715Z,0.00
2019-05-03T22:21:23.375Z,0.00
2019-05-03T22:24:25.132Z,0.00
2019-05-03T22:27:24.639Z,0.00
2019-05-03T22:30:24.316Z,0.00
2019-05-03T22:33:23.229Z,0.00
2019-05-03T22:36:24.562Z,0.00
2019-05-03T22:39:24.932Z,0.00
2019-05-03T22:42:25.167Z,0.00
2019-05-03T22:45:23.104Z,0.00
2019-05-03T22:48:24.985Z,0.00
2019-05-03T22:51:24.470Z,0.00
2019-05-03T22:54:24.575Z,0.00
2019-05-03T22:57:24.552Z,0.00
2019-05-03T23:00:25.033Z,0.00
2019-05-03T23:03:24.876Z,0.00
2019-05-03T23:06:25.048Z,0.00
2019-05-03T23:09:24.751Z,0.00
2019-05-03T23:12:22.809Z,0.00
2019-05-03T23:15:24.408Z,0.00
2019-05-03T23:18:24.707Z,0.00
2019-05-03T23:21:24.396Z,0.00
2019-05-03T23:24:24.579Z,0.00
2019-05-03T23:27:24.843Z,0.00
2019-05-03T23:30:24.738Z,0.00
2019-05-03T23:33:22.577Z,0.00
2019-05-03T23:36:32.768Z,0.00
2019-05-03T23:39:24.963Z,0.00
2019-05-03T23:42:24.360Z,0.00
2019-05-03T23:45:22.457Z,0.00
2019-05-03T23:48:22.409Z,0.00
2019-05-03T23:51:22.389Z,0.00
2019-05-03T23:54:24.509Z,0.00
2019-05-03T23:57:22.333Z,0.00
